Time;durP1;ratioP1;P1;durP2;ratioP2;P2;SDS_P1;SDS_P2;PMS_P1;PMS_P2;Temp;Humidity;BMP_temperature;BMP_pressure;BME280_temperature;BME280_humidity;BME280_pressure;Samples;Min_cycle;Max_cycle;Signal;HPM_P1;HPM_P2
2022/09/27 00:01:01;;;;;;;;;;;;;;;11.59;100.00;96896.88;1692250;82;21975;-85
2022/09/27 00:03:29;;;;;;;;;;;;;;;11.59;100.00;96906.52;1736514;80;22946;-85
2022/09/27 00:06:06;;;;;;;;;;;;;;;11.59;100.00;96899.49;1732139;80;20299;-84
2022/09/27 00:08:32;;;;;;;;;;;;;;;11.59;100.00;96899.98;1693434;82;20249;-85
2022/09/27 00:11:05;;;;;;;;;;;;;;;11.59;100.00;96899.98;1688369;82;24907;-84
2022/09/27 00:13:42;;;;;;;;;;;;;;;11.59;100.00;96896.05;1743637;80;22063;-84
2022/09/27 00:16:08;;;;;;;;;;;;;;;11.58;100.00;96891.28;1735214;80;25974;-84
2022/09/27 00:18:38;;;;;;;;;;;;;;;11.59;100.00;96896.88;1743026;80;24404;-84
2022/09/27 00:21:07;;;;;;;;;;;;;;;11.58;100.00;96891.28;1700722;83;20184;-84
2022/09/27 00:23:34;;;;;;;;;;;;;;;11.59;100.00;96884.25;1710105;82;24742;-84
2022/09/27 00:26:07;;;;;;;;;;;;;;;11.58;100.00;96874.74;1712013;82;21438;-84
2022/09/27 00:28:33;;;;;;;;;;;;;;;11.58;100.00;96870.81;1709173;82;26697;-84
2022/09/27 00:31:00;;;;;;;;;;;;;;;11.55;100.00;96861.95;1712307;82;24690;-84
2022/09/27 00:33:27;;;;;;;;;;;;;;;11.54;100.00;96861.13;1710385;82;20457;-84
2022/09/27 00:35:53;;;;;;;;;;;;;;;11.55;100.00;96860.65;1707481;82;24844;-84
2022/09/27 00:38:19;;;;;;;;;;;;;;;11.54;100.00;96856.38;1709030;82;21986;-84
2022/09/27 00:40:46;;;;;;;;;;;;;;;11.55;100.00;96844.93;1685492;83;40483;-84
2022/09/27 00:43:22;;;;;;;;;;;;;;;11.54;100.00;96841.97;1712492;82;24577;-84
2022/09/27 00:45:52;;;;;;;;;;;;;;;11.54;100.00;96842.80;1712127;82;20226;-84
2022/09/27 00:48:20;;;;;;;;;;;;;;;11.55;100.00;96844.45;1713488;82;25681;-84
2022/09/27 00:50:51;;;;;;;;;;;;;;;11.58;100.00;96848.55;1695255;83;22746;-85
2022/09/27 00:53:20;;;;;;;;;;;;;;;11.58;100.00;96844.13;1715056;82;25939;-84
2022/09/27 00:55:51;;;;;;;;;;;;;;;11.57;100.00;96840.34;1709203;82;24562;-84
2022/09/27 00:58:19;;;;;;;;;;;;;;;11.51;100.00;96830.50;1692404;82;20220;-84
2022/09/27 01:00:46;;;;;;;;;;;;;;;11.44;100.00;96830.28;1734539;80;24854;-84
2022/09/27 01:03:20;;;;;;;;;;;;;;;11.44;100.00;96828.14;1745092;80;22074;-84
2022/09/27 01:05:49;;;;;;;;;;;;;;;11.36;100.00;96830.67;1700041;82;26033;-84
2022/09/27 01:08:17;;;;;;;;;;;;;;;11.28;100.00;96827.52;1719722;82;20322;-84
2022/09/27 01:10:44;;;;;;;;;;;;;;;11.33;100.00;96824.78;1722089;81;20254;-84
2022/09/27 01:13:20;;;;;;;;;;;;;;;11.39;100.00;96815.98;1721788;82;24872;-84
2022/09/27 01:15:53;;;;;;;;;;;;;;;11.36;100.00;96817.58;1723687;81;22850;-84
2022/09/27 01:18:36;;;;;;;;;;;;;;;11.42;100.00;96816.98;1726612;82;26028;-84
2022/09/27 01:21:24;;;;;;;;;;;;;;;11.50;100.00;96813.95;1695530;83;24500;-84
2022/09/27 01:24:08;;;;;;;;;;;;;;;11.56;100.00;96813.34;1715303;82;20219;-84
2022/09/27 01:26:48;;;;;;;;;;;;;;;11.57;100.00;96802.35;1733280;80;25706;-84
2022/09/27 01:29:25;;;;;;;;;;;;;;;11.56;100.00;96799.42;1699413;82;22856;-84
2022/09/27 01:31:53;;;;;;;;;;;;;;;11.49;100.00;96787.90;1733839;81;26015;-84
2022/09/27 01:34:26;;;;;;;;;;;;;;;11.38;100.00;96788.97;1728019;81;24427;-84
2022/09/27 01:36:54;;;;;;;;;;;;;;;11.35;100.00;96780.61;1692956;82;20333;-84
2022/09/27 01:39:30;;;;;;;;;;;;;;;11.38;100.00;96780.29;1690564;83;25180;-83
2022/09/27 01:42:01;;;;;;;;;;;;;;;11.42;100.00;96779.00;1729934;81;21959;-84
2022/09/27 01:44:34;;;;;;;;;;;;;;;11.44;100.00;96770.52;1715917;82;25950;-84
2022/09/27 01:47:02;;;;;;;;;;;;;;;11.45;100.00;96763.82;1713251;82;24439;-84
2022/09/27 01:49:32;;;;;;;;;;;;;;;11.39;100.00;96763.12;1708405;82;20385;-84
2022/09/27 01:52:05;;;;;;;;;;;;;;;11.33;100.00;96759.80;1708339;82;24741;-84
2022/09/27 01:54:32;;;;;;;;;;;;;;;11.27;100.00;96762.53;1738622;80;21980;-85
2022/09/27 01:57:00;;;;;;;;;;;;;;;11.29;100.00;96761.87;1701430;81;26063;-84
2022/09/27 01:59:35;;;;;;;;;;;;;;;11.33;100.00;96773.72;1731540;81;25064;-84
2022/09/27 02:02:03;;;;;;;;;;;;;;;11.36;100.00;96768.64;1687460;82;20243;-84
2022/09/27 02:04:33;;;;;;;;;;;;;;;11.34;100.00;96765.38;1685144;83;24816;-84
2022/09/27 02:07:01;;;;;;;;;;;;;;;11.34;100.00;96756.21;1723983;81;22062;-85
2022/09/27 02:09:30;;;;;;;;;;;;;;;11.39;100.00;96762.30;1729594;81;26877;-85
2022/09/27 02:11:59;;;;;;;;;;;;;;;11.39;100.00;96754.44;1730325;81;24515;-85
2022/09/27 02:14:29;;;;;;;;;;;;;;;11.38;100.00;96756.72;1731598;81;20536;-85
2022/09/27 02:16:57;;;;;;;;;;;;;;;11.29;100.00;96750.09;1715002;82;24762;-83
2022/09/27 02:19:25;;;;;;;;;;;;;;;11.18;100.00;96745.09;1718217;82;22169;-84
2022/09/27 02:22:02;;;;;;;;;;;;;;;11.07;100.00;96744.55;1692286;83;25955;-83
2022/09/27 02:24:31;;;;;;;;;;;;;;;11.07;100.00;96745.37;1728209;81;24510;-83
2022/09/27 02:27:00;;;;;;;;;;;;;;;11.15;100.00;96743.28;1696322;83;20470;-84
2022/09/27 02:29:39;;;;;;;;;;;;;;;11.21;100.00;96743.98;1732688;81;24761;-84
2022/09/27 02:32:05;;;;;;;;;;;;;;;11.20;100.00;96736.62;1732081;81;21954;-84
2022/09/27 02:34:33;;;;;;;;;;;;;;;11.11;100.00;96729.69;1732891;81;26070;-84
2022/09/27 02:36:59;;;;;;;;;;;;;;;11.02;100.00;96720.10;1709379;82;24337;-84
2022/09/27 02:39:28;;;;;;;;;;;;;;;11.02;100.00;96725.86;1738349;80;20274;-84
2022/09/27 02:41:57;;;;;;;;;;;;;;;11.10;100.00;96724.59;1733017;81;24982;-84
2022/09/27 02:44:23;;;;;;;;;;;;;;;11.16;100.00;96724.81;1723220;81;21995;-84
2022/09/27 02:47:07;;;;;;;;;;;;;;;11.20;100.00;96728.77;1709094;82;26189;-84
2022/09/27 02:49:35;;;;;;;;;;;;;;;11.25;100.00;96720.44;1718663;83;24338;-83
2022/09/27 02:52:22;;;;;;;;;;;;;;;11.28;100.00;96717.05;1730953;81;20216;-84
2022/09/27 02:55:08;;;;;;;;;;;;;;;11.26;100.00;96715.55;1732554;81;24765;-84
2022/09/27 02:57:48;;;;;;;;;;;;;;;11.22;100.00;96711.59;1729151;82;20197;-84
2022/09/27 03:00:16;;;;;;;;;;;;;;;11.21;100.00;96706.84;1705743;82;25960;-84
2022/09/27 03:03:01;;;;;;;;;;;;;;;11.19;100.00;96707.96;1713822;82;24561;-84
2022/09/27 03:05:29;;;;;;;;;;;;;;;11.15;100.00;96703.53;1715307;82;20489;-84
2022/09/27 03:07:57;;;;;;;;;;;;;;;11.14;100.00;96704.98;1723275;82;24803;-85
2022/09/27 03:10:29;;;;;;;;;;;;;;;11.13;100.00;96704.64;1737502;81;22750;-84
2022/09/27 03:12:57;;;;;;;;;;;;;;;11.12;100.00;96702.53;1717359;82;25947;-84
2022/09/27 03:15:26;;;;;;;;;;;;;;;11.13;100.00;96702.84;1741707;81;23843;-84
2022/09/27 03:18:05;;;;;;;;;;;;;;;11.14;100.00;96699.74;1710438;82;20450;-84
2022/09/27 03:20:34;;;;;;;;;;;;;;;11.12;100.00;96693.37;1736630;81;24919;-84
2022/09/27 03:23:09;;;;;;;;;;;;;;;11.10;100.00;96691.39;1737998;81;22077;-84
2022/09/27 03:25:36;;;;;;;;;;;;;;;11.02;100.00;96691.31;1709211;82;25835;-84
2022/09/27 03:28:03;;;;;;;;;;;;;;;11.03;100.00;96682.97;1711746;82;24477;-85
2022/09/27 03:30:30;;;;;;;;;;;;;;;11.02;100.00;96686.59;1741163;80;20240;-85
2022/09/27 03:32:56;;;;;;;;;;;;;;;11.01;100.00;96687.56;1696500;82;24750;-84
2022/09/27 03:35:22;;;;;;;;;;;;;;;10.96;100.00;96686.71;1731136;81;22049;-84
2022/09/27 03:37:52;;;;;;;;;;;;;;;10.95;100.00;96680.31;1754052;81;20874;-84
2022/09/27 03:40:24;;;;;;;;;;;;;;;10.94;100.00;96683.41;1736491;82;24537;-85
2022/09/27 03:42:50;;;;;;;;;;;;;;;10.98;100.00;96683.92;1723024;82;20255;-85
2022/09/27 03:45:16;;;;;;;;;;;;;;;10.99;100.00;96685.56;1717775;82;24857;-83
2022/09/27 03:47:47;;;;;;;;;;;;;;;10.99;100.00;96684.27;1717670;82;22165;-83
2022/09/27 03:50:14;;;;;;;;;;;;;;;11.00;100.00;96679.37;1722149;81;26101;-83
2022/09/27 03:52:41;;;;;;;;;;;;;;;11.01;100.00;96681.02;1716791;81;24509;-83
2022/09/27 03:55:08;;;;;;;;;;;;;;;11.02;100.00;96683.97;1724005;81;20282;-84
2022/09/27 03:57:33;;;;;;;;;;;;;;;11.04;100.00;96678.91;1722180;82;24748;-84
2022/09/27 04:00:04;;;;;;;;;;;;;;;11.05;100.00;96671.39;1726802;81;20156;-84
2022/09/27 04:02:30;;;;;;;;;;;;;;;11.05;100.00;96670.08;1730015;81;25973;-85
2022/09/27 04:05:00;;;;;;;;;;;;;;;11.06;100.00;96665.19;1728602;81;20243;-84
2022/09/27 04:07:26;;;;;;;;;;;;;;;11.07;100.00;96664.22;1725483;81;20280;-84
2022/09/27 04:09:54;;;;;;;;;;;;;;;11.10;100.00;96657.84;1730522;82;20519;-84
2022/09/27 04:12:20;;;;;;;;;;;;;;;11.11;100.00;96662.92;1723566;81;22000;-84
2022/09/27 04:14:48;;;;;;;;;;;;;;;11.12;100.00;96658.03;1732696;81;26101;-84
2022/09/27 04:17:23;;;;;;;;;;;;;;;11.13;100.00;96656.20;1720825;81;24705;-84
2022/09/27 04:19:50;;;;;;;;;;;;;;;11.13;100.00;96660.13;1723141;81;20557;-84
2022/09/27 04:22:16;;;;;;;;;;;;;;;11.14;100.00;96654.75;1729151;81;20824;-83
2022/09/27 04:24:42;;;;;;;;;;;;;;;11.11;100.00;96651.14;1726265;82;21958;-84
2022/09/27 04:27:10;;;;;;;;;;;;;;;11.05;100.00;96635.23;1706610;81;21278;-84
2022/09/27 04:29:36;;;;;;;;;;;;;;;10.98;100.00;96642.86;1729269;81;20927;-84
2022/09/27 04:32:08;;;;;;;;;;;;;;;10.94;100.00;96640.23;1724619;81;20489;-84
2022/09/27 04:37:25;;;;;;;;;;;;;;;10.95;100.00;96636.64;1730962;82;22230;-84
2022/09/27 04:39:51;;;;;;;;;;;;;;;10.92;100.00;96638.23;1722660;81;26996;-84
2022/09/27 04:42:18;;;;;;;;;;;;;;;10.91;100.00;96643.13;1728826;81;20262;-84
2022/09/27 04:44:44;;;;;;;;;;;;;;;10.90;100.00;96636.28;1726576;81;20252;-85
2022/09/27 04:47:12;;;;;;;;;;;;;;;10.91;100.00;96637.91;1728880;81;24805;-85
2022/09/27 04:49:38;;;;;;;;;;;;;;;10.92;100.00;96642.17;1726456;81;22116;-84
2022/09/27 04:52:05;;;;;;;;;;;;;;;10.98;100.00;96640.73;1728623;81;26059;-85
2022/09/27 04:54:31;;;;;;;;;;;;;;;10.99;100.00;96636.66;1725084;81;24506;-84
2022/09/27 04:56:59;;;;;;;;;;;;;;;11.04;100.00;96638.33;1700414;82;20266;-84
2022/09/27 04:59:26;;;;;;;;;;;;;;;11.07;100.00;96631.98;1700401;82;24928;-85
2022/09/27 05:01:52;;;;;;;;;;;;;;;11.08;100.00;96634.42;1697531;82;22014;-84
2022/09/27 05:04:20;;;;;;;;;;;;;;;11.11;100.00;96630.69;1717908;82;26027;-84
2022/09/27 05:06:48;;;;;;;;;;;;;;;11.16;100.00;96633.66;1712427;82;24547;-84
2022/09/27 05:09:14;;;;;;;;;;;;;;;11.18;100.00;96630.41;1745366;80;20298;-84
2022/09/27 05:11:46;;;;;;;;;;;;;;;11.25;100.00;96638.78;1700210;83;20323;-85
2022/09/27 05:14:12;;;;;;;;;;;;;;;11.29;100.00;96636.18;1692709;83;22054;-84
2022/09/27 05:16:41;;;;;;;;;;;;;;;11.32;100.00;96628.03;1727390;81;26060;-85
2022/09/27 05:19:10;;;;;;;;;;;;;;;11.34;100.00;96631.81;1734634;80;24426;-84
2022/09/27 05:21:36;;;;;;;;;;;;;;;11.36;100.00;96623.77;1698667;82;20263;-84
2022/09/27 05:24:02;;;;;;;;;;;;;;;11.39;100.00;96619.55;1726766;80;20748;-85
2022/09/27 05:26:29;;;;;;;;;;;;;;;11.43;100.00;96628.25;1704034;82;22130;-85
2022/09/27 05:28:55;;;;;;;;;;;;;;;11.46;100.00;96628.41;1701628;82;25852;-84
2022/09/27 05:31:25;;;;;;;;;;;;;;;11.48;100.00;96629.08;1730838;80;20373;-84
2022/09/27 05:33:50;;;;;;;;;;;;;;;11.51;100.00;96636.64;1731677;82;20510;-84
2022/09/27 05:36:20;;;;;;;;;;;;;;;11.52;100.00;96635.64;1713516;82;24736;-84
2022/09/27 05:38:46;;;;;;;;;;;;;;;11.56;100.00;96624.72;1719946;82;22935;-84
2022/09/27 05:41:12;;;;;;;;;;;;;;;11.63;100.00;96622.27;1732846;80;26005;-84
2022/09/27 05:43:38;;;;;;;;;;;;;;;11.66;100.00;96614.92;1730081;80;20243;-84
2022/09/27 05:46:04;;;;;;;;;;;;;;;11.72;100.00;96616.09;1725007;81;20299;-84
2022/09/27 05:48:31;;;;;;;;;;;;;;;11.75;100.00;96613.17;1714214;82;25609;-84
2022/09/27 05:50:58;;;;;;;;;;;;;;;11.78;100.00;96612.88;1733166;81;22300;-84
2022/09/27 05:53:24;;;;;;;;;;;;;;;11.82;100.00;96611.56;1733195;81;25985;-85
2022/09/27 05:55:57;;;;;;;;;;;;;;;11.86;100.00;96612.06;1709988;82;24454;-85
2022/09/27 05:58:26;;;;;;;;;;;;;;;11.91;100.00;96609.29;1695811;83;20236;-84
2022/09/27 06:00:52;;;;;;;;;;;;;;;11.97;100.00;96609.14;1734036;81;24823;-85
2022/09/27 06:03:18;;;;;;;;;;;;;;;12.00;100.00;96604.39;1689713;82;22096;-85
2022/09/27 06:05:45;;;;;;;;;;;;;;;12.01;100.00;96603.41;1723984;82;21045;-85
2022/09/27 06:08:12;;;;;;;;;;;;;;;12.06;100.00;96591.95;1717272;82;24669;-84
2022/09/27 06:10:39;;;;;;;;;;;;;;;12.10;100.00;96593.78;1716142;82;20293;-84
2022/09/27 06:13:12;;;;;;;;;;;;;;;12.14;100.00;96594.59;1721943;82;25562;-85
2022/09/27 06:15:41;;;;;;;;;;;;;;;12.19;100.00;96597.22;1723756;81;23090;-84
2022/09/27 06:18:14;;;;;;;;;;;;;;;12.23;100.00;96590.66;1723250;82;25498;-85
2022/09/27 06:20:41;;;;;;;;;;;;;;;12.30;100.00;96595.11;1718797;82;24587;-85
2022/09/27 06:23:10;;;;;;;;;;;;;;;12.35;100.00;96598.06;1726099;82;20611;-85
2022/09/27 06:25:38;;;;;;;;;;;;;;;12.39;100.00;96599.37;1721089;82;25605;-85
2022/09/27 06:28:04;;;;;;;;;;;;;;;12.44;100.00;96595.76;1727606;81;22434;-85
2022/09/27 06:30:31;;;;;;;;;;;;;;;12.49;100.00;96592.67;1730700;80;26024;-85
2022/09/27 06:32:59;;;;;;;;;;;;;;;12.53;100.00;96588.73;1726500;82;24524;-85
2022/09/27 06:35:26;;;;;;;;;;;;;;;12.61;100.00;96592.64;1729146;80;20354;-84
2022/09/27 06:37:54;;;;;;;;;;;;;;;12.68;100.00;96589.70;1727486;81;24757;-85
2022/09/27 06:40:21;;;;;;;;;;;;;;;12.78;100.00;96596.08;1730436;81;21978;-85
2022/09/27 06:42:49;;;;;;;;;;;;;;;12.86;100.00;96593.46;1726089;82;21561;-85
2022/09/27 06:45:21;;;;;;;;;;;;;;;12.92;100.00;96592.80;1726112;81;24458;-85
2022/09/27 06:47:47;;;;;;;;;;;;;;;13.02;100.00;96592.13;1728230;80;20271;-85
2022/09/27 06:50:13;;;;;;;;;;;;;;;13.09;100.00;96589.13;1757876;80;20425;-85
2022/09/27 06:52:41;;;;;;;;;;;;;;;13.15;100.00;96588.98;1753391;81;21939;-85
2022/09/27 06:55:09;;;;;;;;;;;;;;;13.17;100.00;96584.39;1712581;82;26137;-85
2022/09/27 07:00:23;;;;;;;;;;;;;;;13.26;100.00;96584.20;1699625;82;20263;-84
2022/09/27 07:02:49;;;;;;;;;;;;;;;13.32;100.00;96578.77;1732424;82;24865;-84
2022/09/27 07:05:19;;;;;;;;;;;;;;;13.34;100.00;96577.62;1704156;82;22730;-84
2022/09/27 07:07:47;;;;;;;;;;;;;;;13.37;100.00;96577.75;1700033;83;25972;-86
2022/09/27 07:10:13;;;;;;;;;;;;;;;13.43;100.00;96583.65;1703735;83;24148;-85
2022/09/27 07:12:40;;;;;;;;;;;;;;;13.54;100.00;96575.39;1694597;83;20268;-85
2022/09/27 07:15:06;;;;;;;;;;;;;;;13.62;100.00;96571.43;1706266;83;25712;-85
2022/09/27 07:17:36;;;;;;;;;;;;;;;13.69;100.00;96569.73;1708784;82;20170;-85
2022/09/27 07:20:02;;;;;;;;;;;;;;;13.77;100.00;96574.14;1703298;83;26950;-85
2022/09/27 07:22:29;;;;;;;;;;;;;;;13.80;100.00;96568.03;1700096;83;24353;-85
2022/09/27 07:24:58;;;;;;;;;;;;;;;13.87;100.00;96564.22;1698861;83;20222;-85
2022/09/27 07:27:25;;;;;;;;;;;;;;;13.93;100.00;96569.28;1701560;83;25164;-85
2022/09/27 07:29:51;;;;;;;;;;;;;;;13.96;100.00;96555.80;1699579;83;22751;-85
2022/09/27 07:32:17;;;;;;;;;;;;;;;13.98;100.00;96552.48;1701473;83;21847;-85
2022/09/27 07:34:42;;;;;;;;;;;;;;;14.01;100.00;96559.55;1700554;83;20247;-85
2022/09/27 07:37:08;;;;;;;;;;;;;;;14.11;100.00;96560.63;1696075;83;20262;-85
2022/09/27 07:39:34;;;;;;;;;;;;;;;14.15;100.00;96564.05;1698814;83;25557;-85
2022/09/27 07:42:01;;;;;;;;;;;;;;;14.24;100.00;96556.91;1697208;83;20831;-85
2022/09/27 07:44:28;;;;;;;;;;;;;;;14.33;100.00;96566.39;1697511;83;22265;-85
2022/09/27 07:46:54;;;;;;;;;;;;;;;14.40;100.00;96556.81;1696944;83;21035;-85
2022/09/27 07:49:26;;;;;;;;;;;;;;;14.49;100.00;96559.72;1699549;83;20301;-85
2022/09/27 07:51:53;;;;;;;;;;;;;;;14.53;100.00;96553.09;1698069;83;24875;-85
2022/09/27 07:54:19;;;;;;;;;;;;;;;14.63;100.00;96554.16;1699373;83;20313;-85
2022/09/27 07:56:45;;;;;;;;;;;;;;;14.74;100.00;96556.36;1703954;83;20981;-85
2022/09/27 07:59:11;;;;;;;;;;;;;;;14.82;100.00;96555.48;1704033;83;20242;-84
2022/09/27 08:01:40;;;;;;;;;;;;;;;14.91;100.00;96555.21;1698156;83;20236;-85
2022/09/27 08:04:06;;;;;;;;;;;;;;;14.93;100.00;96549.28;1701481;82;24746;-85
2022/09/27 08:06:35;;;;;;;;;;;;;;;15.00;100.00;96550.70;1715173;82;20233;-85
2022/09/27 08:09:00;;;;;;;;;;;;;;;15.05;100.00;96547.81;1715965;81;26001;-85
2022/09/27 08:11:26;;;;;;;;;;;;;;;15.11;100.00;96544.95;1713591;82;24669;-85
2022/09/27 08:13:55;;;;;;;;;;;;;;;15.19;100.00;96546.69;1715753;82;20285;-85
2022/09/27 08:16:21;;;;;;;;;;;;;;;15.21;100.00;96553.43;1719941;82;24849;-85
2022/09/27 08:18:47;;;;;;;;;;;;;;;15.26;100.00;96542.34;1704795;82;20307;-85
2022/09/27 08:21:13;;;;;;;;;;;;;;;15.29;100.00;96545.41;1669642;84;21054;-85
2022/09/27 08:23:38;;;;;;;;;;;;;;;15.31;100.00;96546.06;1704272;82;20237;-85
2022/09/27 08:26:04;;;;;;;;;;;;;;;15.33;100.00;96546.67;1678630;84;20269;-85
2022/09/27 08:28:30;;;;;;;;;;;;;;;15.31;100.00;96544.75;1684275;84;20882;-85
2022/09/27 08:30:58;;;;;;;;;;;;;;;15.31;100.00;96540.79;1682135;84;20322;-85
2022/09/27 08:33:24;;;;;;;;;;;;;;;15.35;100.00;96547.82;1686738;84;26888;-85
2022/09/27 08:35:50;;;;;;;;;;;;;;;15.42;100.00;96540.83;1683922;84;24441;-85
2022/09/27 08:38:18;;;;;;;;;;;;;;;15.37;100.00;96533.97;1682572;84;20272;-85
2022/09/27 08:40:53;;;;;;;;;;;;;;;15.29;100.00;96536.69;1668810;84;20254;-85
2022/09/27 08:43:40;;;;;;;;;;;;;;;15.29;100.00;96532.73;1651736;84;20179;-85
2022/09/27 08:46:08;;;;;;;;;;;;;;;15.27;100.00;96534.26;1696068;82;26374;-85
2022/09/27 08:48:38;;;;;;;;;;;;;;;15.33;100.00;96534.81;1693319;83;20643;-85
2022/09/27 08:51:05;;;;;;;;;;;;;;;15.34;100.00;96531.19;1665150;84;20235;-85
2022/09/27 08:53:53;;;;;;;;;;;;;;;15.38;100.00;96523.22;1660168;84;24815;-85
2022/09/27 08:56:20;;;;;;;;;;;;;;;15.48;100.00;96521.64;1652109;84;22103;-85
2022/09/27 08:58:54;;;;;;;;;;;;;;;15.52;100.00;96518.98;1700840;83;25987;-85
2022/09/27 09:01:20;;;;;;;;;;;;;;;15.58;100.00;96520.88;1692882;83;24316;-85
2022/09/27 09:03:50;;;;;;;;;;;;;;;15.69;100.00;96519.58;1701631;82;20220;-85
2022/09/27 09:06:37;;;;;;;;;;;;;;;15.81;100.00;96522.06;1695777;83;24805;-85
2022/09/27 09:09:16;;;;;;;;;;;;;;;15.89;100.00;96521.92;1731569;81;22597;-85
2022/09/27 09:14:39;;;;;;;;;;;;;;;15.98;100.00;96513.41;1724921;82;25238;-85
2022/09/27 09:17:25;;;;;;;;;;;;;;;16.01;100.00;96508.56;1677568;82;20242;-85
2022/09/27 09:20:11;;;;;;;;;;;;;;;16.02;100.00;96508.88;1724146;81;25708;-85
2022/09/27 09:22:54;;;;;;;;;;;;;;;16.01;100.00;96505.92;1723297;81;22754;-85
2022/09/27 09:25:22;;;;;;;;;;;;;;;16.08;100.00;96500.72;1722604;81;25901;-85
2022/09/27 09:27:55;;;;;;;;;;;;;;;16.11;100.00;96505.61;1728573;81;24400;-85
2022/09/27 09:30:26;;;;;;;;;;;;;;;16.14;100.00;96494.69;1726909;81;20333;-84
2022/09/27 09:33:06;;;;;;;;;;;;;;;16.13;100.00;96488.59;1689274;82;24825;-85
2022/09/27 09:35:37;;;;;;;;;;;;;;;16.17;100.00;96483.74;1696483;83;22081;-85
2022/09/27 09:38:05;;;;;;;;;;;;;;;16.25;100.00;96476.53;1698050;82;26137;-85
2022/09/27 09:40:41;;;;;;;;;;;;;;;16.29;100.00;96473.81;1727731;82;25308;-85
2022/09/27 09:43:12;;;;;;;;;;;;;;;16.32;100.00;96465.50;1689413;83;20258;-85
2022/09/27 09:45:40;;;;;;;;;;;;;;;16.40;100.00;96472.47;1734717;81;25402;-85
2022/09/27 09:48:08;;;;;;;;;;;;;;;16.43;100.00;96466.80;1740350;81;21973;-85
2022/09/27 09:50:42;;;;;;;;;;;;;;;16.41;100.00;96460.91;1705857;83;26863;-85
2022/09/27 09:53:16;;;;;;;;;;;;;;;16.44;100.00;96461.84;1688233;82;24396;-85
2022/09/27 09:55:44;;;;;;;;;;;;;;;16.39;100.00;96457.63;1685185;82;20553;-85
2022/09/27 09:58:33;;;;;;;;;;;;;;;16.40;100.00;96459.77;1672859;84;21767;-85
2022/09/27 10:01:01;;;;;;;;;;;;;;;16.40;100.00;96461.09;1706805;82;22088;-85
2022/09/27 10:03:27;;;;;;;;;;;;;;;16.42;100.00;96463.05;1713196;82;26137;-85
2022/09/27 10:05:55;;;;;;;;;;;;;;;16.44;100.00;96456.55;1733030;81;24450;-85
2022/09/27 10:08:23;;;;;;;;;;;;;;;16.45;100.00;96462.66;1737790;81;20670;-85
2022/09/27 10:10:49;;;;;;;;;;;;;;;16.49;100.00;96462.58;1733076;82;24805;-85
2022/09/27 10:13:16;;;;;;;;;;;;;;;16.45;100.00;96454.73;1720375;82;20230;-85
2022/09/27 10:15:45;;;;;;;;;;;;;;;16.45;100.00;96457.37;1721196;82;26040;-85
2022/09/27 10:18:12;;;;;;;;;;;;;;;16.44;100.00;96455.73;1727484;82;24433;-85
2022/09/27 10:20:50;;;;;;;;;;;;;;;16.48;100.00;96460.44;1729781;82;20216;-85
2022/09/27 10:23:20;;;;;;;;;;;;;;;16.49;100.00;96459.43;1728986;82;24957;-85
2022/09/27 10:25:48;;;;;;;;;;;;;;;16.52;100.00;96459.57;1720570;82;21965;-85
2022/09/27 10:28:31;;;;;;;;;;;;;;;16.52;100.00;96453.78;1721042;82;25772;-84
2022/09/27 10:30:57;;;;;;;;;;;;;;;16.52;100.00;96447.69;1718467;82;24622;-85
2022/09/27 10:33:23;;;;;;;;;;;;;;;16.39;100.00;96451.03;1725586;82;20477;-85
2022/09/27 10:35:49;;;;;;;;;;;;;;;16.29;100.00;96455.33;1723963;82;24734;-85
2022/09/27 10:38:17;;;;;;;;;;;;;;;16.21;100.00;96453.31;1721636;82;20264;-85
2022/09/27 10:40:43;;;;;;;;;;;;;;;16.14;100.00;96451.97;1718929;82;26018;-85
2022/09/27 10:43:28;;;;;;;;;;;;;;;16.07;100.00;96456.36;1722795;82;24414;-84
2022/09/27 10:46:14;;;;;;;;;;;;;;;16.00;100.00;96454.66;1727637;82;20219;-84
2022/09/27 10:48:41;;;;;;;;;;;;;;;15.97;100.00;96450.59;1714943;82;24841;-85
2022/09/27 10:51:12;;;;;;;;;;;;;;;16.00;100.00;96452.84;1723540;82;22756;-85
2022/09/27 10:53:40;;;;;;;;;;;;;;;15.93;100.00;96447.99;1713310;82;26043;-85
2022/09/27 10:56:07;;;;;;;;;;;;;;;15.97;100.00;96447.95;1722909;82;24471;-85
2022/09/27 10:58:35;;;;;;;;;;;;;;;16.01;100.00;96447.88;1720111;82;20188;-84
2022/09/27 11:01:03;;;;;;;;;;;;;;;16.04;100.00;96452.77;1723914;82;24769;-85
2022/09/27 11:03:30;;;;;;;;;;;;;;;16.10;100.00;96443.27;1723687;82;22061;-85
2022/09/27 11:05:58;;;;;;;;;;;;;;;16.10;100.00;96450.69;1722221;82;26709;-85
2022/09/27 11:08:34;;;;;;;;;;;;;;;16.13;100.00;96445.55;1717050;82;24433;-85
2022/09/27 11:11:02;;;;;;;;;;;;;;;16.15;100.00;96450.94;1720342;82;20257;-85
2022/09/27 11:13:31;;;;;;;;;;;;;;;16.16;100.00;96449.94;1716523;82;24779;-85
2022/09/27 11:16:09;;;;;;;;;;;;;;;16.17;100.00;96450.75;1714158;82;21987;-86
2022/09/27 11:18:54;;;;;;;;;;;;;;;16.14;100.00;96447.19;1723778;82;26150;-85
2022/09/27 11:21:23;;;;;;;;;;;;;;;16.15;100.00;96447.47;1704849;82;23951;-85
2022/09/27 11:24:00;;;;;;;;;;;;;;;16.13;100.00;96443.73;1719951;82;20208;-86
2022/09/27 11:26:28;;;;;;;;;;;;;;;16.13;100.00;96451.64;1716885;82;24804;-86
2022/09/27 11:29:08;;;;;;;;;;;;;;;16.10;100.00;96445.41;1718493;82;21998;-85
2022/09/27 11:31:52;;;;;;;;;;;;;;;16.07;100.00;96440.53;1719718;82;26034;-85
2022/09/27 11:34:23;;;;;;;;;;;;;;;15.96;100.00;96444.99;1724032;82;24507;-85
2022/09/27 11:36:51;;;;;;;;;;;;;;;15.93;100.00;96440.61;1733156;80;20454;-85
2022/09/27 11:39:19;;;;;;;;;;;;;;;15.90;100.00;96443.11;1736049;80;24764;-85
2022/09/27 11:42:05;;;;;;;;;;;;;;;15.87;100.00;96446.14;1732929;80;22046;-86
2022/09/27 11:44:38;;;;;;;;;;;;;;;15.83;100.00;96438.27;1733473;80;26050;-85
2022/09/27 11:47:10;;;;;;;;;;;;;;;15.84;100.00;96440.72;1728391;81;20911;-86
2022/09/27 11:49:41;;;;;;;;;;;;;;;15.78;100.00;96443.29;1728002;80;20343;-86
2022/09/27 11:52:21;;;;;;;;;;;;;;;15.75;100.00;96441.86;1735792;80;24763;-86
2022/09/27 11:54:48;;;;;;;;;;;;;;;15.68;100.00;96440.97;1710797;82;22091;-86
2022/09/27 11:57:17;;;;;;;;;;;;;;;15.61;100.00;96441.39;1727569;81;26646;-87
2022/09/27 11:59:45;;;;;;;;;;;;;;;15.63;100.00;96437.26;1738898;81;24504;-86
2022/09/27 12:02:13;;;;;;;;;;;;;;;15.62;100.00;96435.62;1735725;79;20220;-86
2022/09/27 12:04:42;;;;;;;;;;;;;;;15.59;100.00;96432.88;1730156;82;25518;-86
2022/09/27 12:07:22;;;;;;;;;;;;;;;15.62;100.00;96431.66;1694923;82;22000;-86
2022/09/27 12:09:57;;;;;;;;;;;;;;;15.58;100.00;96433.05;1715055;81;21579;-87
2022/09/27 12:12:22;;;;;;;;;;;;;;;15.58;100.00;96433.05;1720093;81;24441;-87
2022/09/27 12:14:49;;;;;;;;;;;;;;;15.52;100.00;96430.66;1715026;82;20304;-87
2022/09/27 12:17:17;;;;;;;;;;;;;;;15.48;100.00;96427.56;1728243;81;24838;-87
2022/09/27 12:19:51;;;;;;;;;;;;;;;15.52;100.00;96429.84;1713964;82;22805;-86
2022/09/27 12:22:20;;;;;;;;;;;;;;;15.50;100.00;96428.16;1724834;82;26239;-86
2022/09/27 12:24:47;;;;;;;;;;;;;;;15.53;100.00;96427.52;1699863;82;24434;-87
2022/09/27 12:27:32;;;;;;;;;;;;;;;15.44;100.00;96421.00;1715231;82;20258;-87
2022/09/27 12:29:58;;;;;;;;;;;;;;;15.42;100.00;96424.84;1721827;82;24764;-87
2022/09/27 12:32:26;;;;;;;;;;;;;;;15.49;100.00;96424.42;1714584;82;22219;-87
2022/09/27 12:35:00;;;;;;;;;;;;;;;15.53;100.00;96426.20;1710915;82;26004;-87
2022/09/27 12:37:30;;;;;;;;;;;;;;;15.60;100.00;96416.55;1708744;82;24474;-87
2022/09/27 12:40:09;;;;;;;;;;;;;;;15.70;100.00;96414.42;1700167;82;20595;-87
2022/09/27 12:42:42;;;;;;;;;;;;;;;15.81;100.00;96419.19;1701809;82;25740;-88
2022/09/27 12:45:13;;;;;;;;;;;;;;;15.92;100.00;96420.00;1710937;82;22094;-87
2022/09/27 12:47:47;;;;;;;;;;;;;;;16.00;100.00;96423.81;1709364;82;25949;-87
2022/09/27 12:50:15;;;;;;;;;;;;;;;16.02;100.00;96428.41;1704488;82;24532;-87
2022/09/27 12:52:43;;;;;;;;;;;;;;;15.94;100.00;96432.98;1708121;82;20425;-88
2022/09/27 12:55:28;;;;;;;;;;;;;;;15.61;100.00;96441.89;1716257;81;24989;-88
2022/09/27 12:57:55;;;;;;;;;;;;;;;15.25;100.00;96441.37;1705335;82;22154;-88